createdAt,value
2023-05-10T00:02:16.000Z,8.80
2023-05-10T00:22:17.000Z,7.80
2023-05-10T00:32:18.000Z,8.40
2023-05-10T00:42:19.000Z,8.90
2023-05-10T00:52:19.000Z,8.30
2023-05-10T01:02:20.000Z,9.40
2023-05-10T01:12:20.000Z,9.50
2023-05-10T01:22:21.000Z,10.10
2023-05-10T01:32:21.000Z,9.50
2023-05-10T01:52:23.000Z,10.00
2023-05-10T02:02:23.000Z,9.50
2023-05-10T02:12:24.000Z,9.50
2023-05-10T02:22:24.000Z,9.50
2023-05-10T02:32:25.000Z,10.30
2023-05-10T02:42:26.000Z,10.10
2023-05-10T02:52:27.000Z,9.10
2023-05-10T03:02:27.000Z,12.50
2023-05-10T03:22:29.000Z,10.70
2023-05-10T03:32:29.000Z,9.40
2023-05-10T03:42:30.000Z,9.10
2023-05-10T03:52:31.000Z,8.90
2023-05-10T04:02:31.000Z,11.70
2023-05-10T04:12:32.000Z,9.70
2023-05-10T04:22:33.000Z,9.70
2023-05-10T04:32:33.000Z,8.60
2023-05-10T04:52:34.000Z,11.20
2023-05-10T05:02:35.000Z,9.30
2023-05-10T05:12:35.000Z,7.70
2023-05-10T05:22:36.000Z,8.80
2023-05-10T05:32:36.000Z,7.70
2023-05-10T05:42:37.000Z,8.10
2023-05-10T05:52:37.000Z,7.70
2023-05-10T06:02:37.000Z,8.80
2023-05-10T06:22:38.000Z,8.00
2023-05-10T06:32:38.000Z,8.30
2023-05-10T06:42:38.000Z,7.30
2023-05-10T06:52:38.000Z,7.10
2023-05-10T07:02:38.000Z,8.30
2023-05-10T07:12:38.000Z,7.00
2023-05-10T07:22:38.000Z,7.20
2023-05-10T07:32:38.000Z,7.30
2023-05-10T07:52:38.000Z,7.40
2023-05-10T08:02:37.000Z,7.80
2023-05-10T08:12:37.000Z,7.90
2023-05-10T08:22:37.000Z,8.00
2023-05-10T08:32:37.000Z,7.10
2023-05-10T08:42:37.000Z,7.80
2023-05-10T08:52:36.000Z,8.30
2023-05-10T09:02:36.000Z,11.00
2023-05-10T09:22:36.000Z,10.30
2023-05-10T09:32:36.000Z,10.00
2023-05-10T09:42:36.000Z,12.10
2023-05-10T09:52:36.000Z,12.40
2023-05-10T10:02:36.000Z,14.60
2023-05-10T10:12:37.000Z,13.20
2023-05-10T10:22:37.000Z,13.30
2023-05-10T10:32:37.000Z,14.40
2023-05-10T10:52:37.000Z,16.60
2023-05-10T11:02:37.000Z,16.30
2023-05-10T11:12:37.000Z,14.90
2023-05-10T11:22:37.000Z,16.60
2023-05-10T11:32:38.000Z,16.40
2023-05-10T11:42:38.000Z,20.00
2023-05-10T11:52:38.000Z,18.00
2023-05-10T12:02:38.000Z,16.60
2023-05-10T12:22:38.000Z,16.40
2023-05-10T12:32:38.000Z,17.10
2023-05-10T12:42:38.000Z,16.50
2023-05-10T12:52:37.000Z,14.90
2023-05-10T13:02:37.000Z,15.50
2023-05-10T13:12:37.000Z,16.70
2023-05-10T13:22:37.000Z,15.20
2023-05-10T13:32:37.000Z,16.50
2023-05-10T13:52:37.000Z,7.90
2023-05-10T14:02:37.000Z,6.00
2023-05-10T14:12:37.000Z,3.40
2023-05-10T14:22:37.000Z,4.00
2023-05-10T14:32:37.000Z,3.20
2023-05-10T14:42:37.000Z,3.50
2023-05-10T14:52:37.000Z,4.00
2023-05-10T15:02:37.000Z,8.80
2023-05-10T15:22:37.000Z,9.20
2023-05-10T15:32:37.000Z,8.10
2023-05-10T15:42:37.000Z,6.60
2023-05-10T15:52:37.000Z,5.50
2023-05-10T16:02:37.000Z,4.70
2023-05-10T16:12:37.000Z,3.90
2023-05-10T16:22:37.000Z,5.60
2023-05-10T16:32:37.000Z,4.40
2023-05-10T16:52:37.000Z,5.20
2023-05-10T17:02:37.000Z,5.70
2023-05-10T17:12:37.000Z,7.00
2023-05-10T17:22:37.000Z,9.00
2023-05-10T17:32:37.000Z,8.60
2023-05-10T17:42:37.000Z,22.90
2023-05-10T17:52:38.000Z,48.90
2023-05-10T18:02:38.000Z,10.50
2023-05-10T18:22:38.000Z,10.10
2023-05-10T18:32:38.000Z,11.30
2023-05-10T18:42:38.000Z,11.10
2023-05-10T18:52:38.000Z,12.60
2023-05-10T19:02:39.000Z,13.40
2023-05-10T19:12:39.000Z,12.70
2023-05-10T19:12:39.000Z,12.70
2023-05-10T19:22:39.000Z,12.00
2023-05-10T19:32:39.000Z,15.80
2023-05-10T19:52:40.000Z,15.50
2023-05-10T20:02:40.000Z,16.10
2023-05-10T20:12:40.000Z,23.10
2023-05-10T20:22:40.000Z,29.10
2023-05-10T20:32:40.000Z,19.40
2023-05-10T20:42:41.000Z,18.90
2023-05-10T20:52:41.000Z,17.00
2023-05-10T21:02:41.000Z,18.30
2023-05-10T21:22:42.000Z,19.40
2023-05-10T21:32:42.000Z,19.80
2023-05-10T21:42:42.000Z,21.10
2023-05-10T21:52:42.000Z,20.60
2023-05-10T22:02:43.000Z,20.90
2023-05-10T22:12:43.000Z,20.70
2023-05-10T22:22:43.000Z,33.30
2023-05-10T22:32:43.000Z,26.90
2023-05-10T22:52:44.000Z,36.50
2023-05-10T23:02:44.000Z,28.30
2023-05-10T23:12:44.000Z,45.90
2023-05-10T23:22:44.000Z,43.50
2023-05-10T23:32:44.000Z,32.80
2023-05-10T23:42:45.000Z,27.20
2023-05-10T23:52:45.000Z,27.20
